Gorham, Kansas
Current Conditions -  °F | °C
As of 6:53 AM on Thursday 30 Oct 2014 (Local Time) from KRSL Reporting Station
Clear Clear  
Wind Chill: 39°   Ceiling: Unl
Heat Index: 46°   Visibility: 10mi
Dew Point: 33°   Wind: 16mph
Humidity: 61%   Direction: 320°NW
Pressure: 30.1"   Gusts: NA
Location:  38.88°N, 99.02°W
Report Text: KRSL 301153Z AUTO 32014KT 10SM CLR 08/01 A3010 RMK AO2 SLP192 T00780006 10106 20078 53032
Loading
Personal Weather Stations






























Interactive Weather Map
Tropical Storm Tracking
New forecast layout! Learn more

10-Day Weather Forecast

Advertisements
Track Severe Weather on mobile